createdAt,value
2022-11-07T00:02:12.183Z,18.01
2022-11-07T00:04:38.863Z,18.03
2022-11-07T00:07:06.224Z,18.03
2022-11-07T00:09:32.606Z,18.02
2022-11-07T00:12:00.240Z,18.02
2022-11-07T00:14:26.537Z,18.02
2022-11-07T00:16:52.836Z,18.02
2022-11-07T00:19:20.532Z,18.03
2022-11-07T00:21:47.330Z,18.02
2022-11-07T00:24:14.493Z,18.03
2022-11-07T00:26:40.852Z,18.02
2022-11-07T00:29:12.449Z,18.03
2022-11-07T00:31:38.778Z,18.03
2022-11-07T00:34:05.281Z,18.02
2022-11-07T00:36:31.596Z,18.04
2022-11-07T00:38:57.990Z,18.04
2022-11-07T00:41:24.525Z,18.03
2022-11-07T00:43:50.911Z,18.02
2022-11-07T00:46:18.758Z,18.03
2022-11-07T00:48:45.292Z,18.02
2022-11-07T00:51:13.026Z,18.02
2022-11-07T00:53:39.792Z,18.03
2022-11-07T00:56:07.589Z,18.03
2022-11-07T00:58:34.440Z,18.03
2022-11-07T01:01:06.429Z,18.03
2022-11-07T01:03:34.053Z,18.03
2022-11-07T01:06:01.046Z,18.02
2022-11-07T01:08:27.775Z,18.03
2022-11-07T01:10:54.134Z,18.03
2022-11-07T01:13:20.543Z,18.04
2022-11-07T01:15:46.820Z,18.03
2022-11-07T01:18:13.305Z,18.03
2022-11-07T01:20:40.914Z,18.03
2022-11-07T01:23:07.598Z,18.03
2022-11-07T01:25:35.776Z,18.03
2022-11-07T01:28:02.101Z,18.04
2022-11-07T01:30:28.390Z,18.04
2022-11-07T01:32:54.710Z,18.04
2022-11-07T01:35:21.042Z,18.04
2022-11-07T01:37:48.623Z,18.05
2022-11-07T01:40:14.935Z,18.04
2022-11-07T01:42:41.173Z,18.04
2022-11-07T01:45:08.075Z,18.06
2022-11-07T01:47:37.042Z,18.05
2022-11-07T01:50:03.956Z,18.05
2022-11-07T01:52:32.748Z,18.04
2022-11-07T01:55:03.892Z,18.03
2022-11-07T01:57:33.019Z,18.05
2022-11-07T02:00:01.710Z,18.04
2022-11-07T02:02:28.273Z,18.04
2022-11-07T02:04:55.714Z,18.04
2022-11-07T02:07:23.123Z,18.04
2022-11-07T02:09:50.750Z,18.05
2022-11-07T02:12:19.030Z,18.05
2022-11-07T02:14:45.669Z,18.04
2022-11-07T02:17:12.587Z,18.05
2022-11-07T02:19:40.245Z,18.03
2022-11-07T02:22:13.165Z,18.05
2022-11-07T02:24:40.844Z,18.06
2022-11-07T02:27:09.807Z,18.05
2022-11-07T02:29:37.768Z,18.06
2022-11-07T02:32:05.420Z,18.05
2022-11-07T02:34:31.717Z,18.06
2022-11-07T02:36:59.764Z,18.05
2022-11-07T02:39:26.362Z,18.05
2022-11-07T02:41:54.624Z,18.05
2022-11-07T02:44:21.001Z,18.05
2022-11-07T02:46:47.346Z,18.05
2022-11-07T02:49:13.867Z,18.06
2022-11-07T02:51:40.189Z,18.05
2022-11-07T02:54:06.503Z,18.06
2022-11-07T02:56:32.796Z,18.06
2022-11-07T02:59:00.492Z,18.06
2022-11-07T03:01:26.831Z,18.06
2022-11-07T03:03:53.289Z,18.06
2022-11-07T03:06:20.986Z,18.06
2022-11-07T03:08:47.617Z,18.06
2022-11-07T03:11:14.166Z,18.05
2022-11-07T03:13:40.447Z,18.07
2022-11-07T03:16:09.534Z,18.06
2022-11-07T03:18:36.279Z,18.05
2022-11-07T03:21:03.164Z,18.06
2022-11-07T03:23:29.524Z,18.06
2022-11-07T03:25:55.842Z,18.05
2022-11-07T03:28:22.176Z,18.06
2022-11-07T03:30:48.504Z,18.06
2022-11-07T03:33:16.807Z,18.06
2022-11-07T03:35:43.356Z,18.07
2022-11-07T03:38:09.719Z,18.06
2022-11-07T03:40:36.160Z,18.06
2022-11-07T03:43:02.593Z,18.06
2022-11-07T03:45:28.909Z,18.06
2022-11-07T03:47:55.224Z,18.06
2022-11-07T03:50:22.824Z,18.06
2022-11-07T03:52:49.465Z,18.07
2022-11-07T03:55:15.838Z,18.07
2022-11-07T03:57:42.585Z,18.06
2022-11-07T04:00:09.298Z,18.06
2022-11-07T04:02:35.719Z,18.07
2022-11-07T04:05:02.134Z,18.07
2022-11-07T04:07:29.909Z,18.07
2022-11-07T04:09:56.208Z,18.07
2022-11-07T04:12:22.565Z,18.06
2022-11-07T04:14:48.926Z,18.07
2022-11-07T04:17:15.262Z,18.06
2022-11-07T04:19:41.553Z,18.06
2022-11-07T04:22:07.967Z,18.06
2022-11-07T04:24:35.603Z,18.08
2022-11-07T04:27:01.901Z,18.08
2022-11-07T04:29:28.193Z,18.07
2022-11-07T04:31:54.512Z,18.09
2022-11-07T04:34:20.802Z,18.10
2022-11-07T04:36:47.077Z,18.14
2022-11-07T04:39:13.402Z,18.15
2022-11-07T04:41:41.016Z,18.19
2022-11-07T04:44:07.796Z,18.21
2022-11-07T04:46:34.176Z,18.24
2022-11-07T04:49:00.421Z,18.26
2022-11-07T04:51:26.870Z,18.29
2022-11-07T04:53:53.380Z,18.30
2022-11-07T04:56:19.712Z,18.32
2022-11-07T04:58:47.313Z,18.33
2022-11-07T05:01:13.578Z,18.35
2022-11-07T05:03:42.034Z,18.36
2022-11-07T05:06:09.827Z,18.38
2022-11-07T05:08:36.125Z,18.40
2022-11-07T05:11:02.424Z,18.40
2022-11-07T05:13:28.727Z,18.42
2022-11-07T05:15:57.544Z,18.44
2022-11-07T05:18:23.966Z,18.44
2022-11-07T05:20:50.357Z,18.47
2022-11-07T05:23:16.822Z,18.48
2022-11-07T05:25:44.244Z,18.49
2022-11-07T05:28:10.713Z,18.50
2022-11-07T05:30:38.503Z,18.51
2022-11-07T05:33:06.165Z,18.53
2022-11-07T05:35:32.477Z,18.55
2022-11-07T05:37:58.779Z,18.56
2022-11-07T05:40:25.016Z,18.56
2022-11-07T05:42:51.302Z,18.59
2022-11-07T05:45:17.644Z,18.59
2022-11-07T05:47:43.894Z,18.59
2022-11-07T05:50:11.606Z,18.57
2022-11-07T05:52:37.968Z,18.48
2022-11-07T05:55:04.574Z,18.45
2022-11-07T05:57:30.907Z,18.45
2022-11-07T05:59:57.414Z,18.42
2022-11-07T06:02:23.876Z,18.40
2022-11-07T06:04:50.354Z,18.38
2022-11-07T06:07:18.046Z,18.35
2022-11-07T06:09:44.346Z,18.49
2022-11-07T06:12:10.640Z,18.57
2022-11-07T06:14:36.968Z,18.64
2022-11-07T06:17:03.288Z,18.68
2022-11-07T06:19:29.586Z,18.71
2022-11-07T06:21:55.996Z,18.73
2022-11-07T06:24:23.576Z,18.76
2022-11-07T06:26:49.845Z,18.78
2022-11-07T06:29:16.238Z,18.78
2022-11-07T06:31:42.580Z,18.78
2022-11-07T06:34:08.911Z,18.78
2022-11-07T06:36:35.255Z,18.79
2022-11-07T06:39:01.553Z,18.81
2022-11-07T06:41:29.160Z,18.84
2022-11-07T06:43:55.506Z,18.87
2022-11-07T06:46:21.782Z,18.87
2022-11-07T06:48:48.200Z,18.88
2022-11-07T06:51:14.536Z,18.87
2022-11-07T06:53:40.925Z,18.88
2022-11-07T06:56:08.260Z,18.88
2022-11-07T06:58:36.025Z,18.90
2022-11-07T07:01:02.885Z,18.92
2022-11-07T07:03:29.823Z,18.93
2022-11-07T07:06:00.094Z,18.94
2022-11-07T07:08:26.376Z,18.97
2022-11-07T07:10:52.698Z,18.96
2022-11-07T07:13:19.156Z,18.96
2022-11-07T07:15:53.250Z,18.96
2022-11-07T07:18:19.784Z,18.97
2022-11-07T07:20:46.327Z,18.98
2022-11-07T07:23:12.794Z,19.01
2022-11-07T07:25:39.225Z,19.01
2022-11-07T07:28:05.555Z,19.04
2022-11-07T07:30:31.807Z,19.04
2022-11-07T07:32:59.445Z,19.04
2022-11-07T07:35:25.849Z,19.03
2022-11-07T07:37:52.173Z,19.05
2022-11-07T07:40:19.074Z,19.07
2022-11-07T07:42:45.619Z,19.14
2022-11-07T07:45:12.758Z,19.14
2022-11-07T07:47:39.384Z,19.14
2022-11-07T07:50:08.620Z,19.15
2022-11-07T07:52:34.901Z,19.16
2022-11-07T07:55:01.443Z,19.16
2022-11-07T07:57:27.888Z,19.18
2022-11-07T07:59:54.189Z,19.18
2022-11-07T08:02:20.574Z,19.22
2022-11-07T08:04:47.031Z,19.25
2022-11-07T08:07:14.993Z,19.28
2022-11-07T08:09:41.314Z,19.31
2022-11-07T08:12:11.836Z,19.34
2022-11-07T08:14:38.212Z,19.37
2022-11-07T08:17:04.546Z,19.40
2022-11-07T08:19:31.394Z,19.45
2022-11-07T08:21:57.802Z,19.47
2022-11-07T08:24:25.477Z,19.50
2022-11-07T08:26:52.064Z,19.55
2022-11-07T08:29:18.569Z,19.56
2022-11-07T08:31:45.012Z,19.49
2022-11-07T08:34:11.407Z,19.42
2022-11-07T08:36:37.975Z,19.53
2022-11-07T08:39:04.394Z,19.54
2022-11-07T08:41:31.954Z,19.60
2022-11-07T08:43:58.285Z,19.68
2022-11-07T08:46:24.650Z,19.72
2022-11-07T08:48:50.949Z,19.73
2022-11-07T08:51:17.243Z,19.76
2022-11-07T08:53:43.583Z,19.79
2022-11-07T08:56:10.325Z,19.78
2022-11-07T08:58:38.311Z,19.80
2022-11-07T09:01:05.572Z,19.83
2022-11-07T09:03:50.311Z,19.84
2022-11-07T09:06:18.302Z,19.91
2022-11-07T09:08:45.036Z,19.90
2022-11-07T09:11:11.441Z,19.91
2022-11-07T09:13:39.116Z,19.92
2022-11-07T09:16:05.663Z,19.96
2022-11-07T09:18:32.344Z,19.98
2022-11-07T09:20:58.677Z,20.00
2022-11-07T09:23:25.004Z,20.03
2022-11-07T09:25:51.346Z,20.07
2022-11-07T09:28:17.662Z,20.08
2022-11-07T09:30:45.277Z,20.08
2022-11-07T09:33:11.777Z,20.11
2022-11-07T09:35:38.134Z,20.15
2022-11-07T09:38:04.608Z,20.15
2022-11-07T09:40:38.176Z,20.17
2022-11-07T09:43:14.059Z,20.20
2022-11-07T09:45:50.075Z,20.21
2022-11-07T09:48:21.830Z,20.22
2022-11-07T09:50:48.598Z,20.25
2022-11-07T09:53:18.343Z,20.27
2022-11-07T09:55:49.907Z,20.29
2022-11-07T09:58:20.567Z,20.32
2022-11-07T10:00:47.167Z,20.35
2022-11-07T10:03:14.256Z,20.37
2022-11-07T10:05:46.297Z,20.39
2022-11-07T10:08:16.320Z,20.44
2022-11-07T10:10:44.722Z,20.47
2022-11-07T10:13:19.897Z,20.48
2022-11-07T10:15:52.157Z,20.49
2022-11-07T10:18:24.117Z,20.50
2022-11-07T10:21:16.080Z,20.52
2022-11-07T10:23:50.139Z,20.57
2022-11-07T10:26:18.873Z,20.57
2022-11-07T10:28:47.469Z,20.61
2022-11-07T10:31:15.028Z,20.65
2022-11-07T10:33:44.637Z,20.64
2022-11-07T10:36:16.695Z,20.63
2022-11-07T10:38:43.303Z,20.66
2022-11-07T10:41:13.522Z,20.67
2022-11-07T10:43:40.612Z,20.67
2022-11-07T10:46:15.642Z,20.62
2022-11-07T10:48:49.708Z,20.63
2022-11-07T10:51:17.357Z,20.65
2022-11-07T10:53:44.207Z,20.65
2022-11-07T10:56:11.293Z,20.65
2022-11-07T10:58:43.381Z,20.56
2022-11-07T11:01:10.272Z,20.41
2022-11-07T11:03:44.642Z,20.55
2022-11-07T11:06:19.596Z,20.60
2022-11-07T11:08:48.084Z,20.63
2022-11-07T11:11:15.000Z,20.62
2022-11-07T11:13:41.453Z,20.64
2022-11-07T11:16:15.843Z,20.62
2022-11-07T11:18:48.051Z,20.62
2022-11-07T11:21:14.346Z,20.61
2022-11-07T11:23:43.112Z,20.61
2022-11-07T11:26:15.806Z,20.63
2022-11-07T11:28:44.273Z,20.63
2022-11-07T11:31:12.375Z,20.63
2022-11-07T11:33:42.274Z,20.63
2022-11-07T11:36:10.186Z,20.63
2022-11-07T11:38:36.691Z,20.63
2022-11-07T11:41:10.703Z,20.62
2022-11-07T11:43:41.642Z,20.62
2022-11-07T11:46:11.105Z,20.63
2022-11-07T11:48:41.183Z,20.63
2022-11-07T11:51:12.082Z,20.64
2022-11-07T11:53:38.717Z,20.64
2022-11-07T11:56:15.933Z,20.64
2022-11-07T11:58:46.263Z,20.67
2022-11-07T12:01:19.144Z,20.64
2022-11-07T12:03:55.475Z,20.64
2022-11-07T12:06:25.704Z,20.65
2022-11-07T12:09:00.251Z,20.65
2022-11-07T12:11:29.144Z,20.67
2022-11-07T12:14:00.802Z,20.68
2022-11-07T12:16:30.468Z,20.67
2022-11-07T12:19:03.394Z,20.70
2022-11-07T12:21:31.452Z,20.72
2022-11-07T12:24:02.078Z,20.76
2022-11-07T12:26:30.109Z,20.78
2022-11-07T12:29:04.707Z,20.81
2022-11-07T12:31:41.685Z,20.82
2022-11-07T12:34:15.621Z,20.84
2022-11-07T12:36:50.558Z,20.86
2022-11-07T12:39:23.552Z,20.86
2022-11-07T12:41:56.123Z,20.90
2022-11-07T12:44:32.950Z,20.92
2022-11-07T12:47:01.733Z,20.95
2022-11-07T12:49:37.268Z,20.95
2022-11-07T12:52:10.660Z,20.91
2022-11-07T12:54:42.390Z,20.90
2022-11-07T12:57:13.957Z,20.88
2022-11-07T12:59:44.738Z,20.88
2022-11-07T13:02:20.431Z,20.89
2022-11-07T13:04:51.249Z,20.87
2022-11-07T13:07:21.648Z,20.89
2022-11-07T13:09:52.330Z,20.86
2022-11-07T13:12:22.932Z,20.90
2022-11-07T13:14:50.777Z,20.91
2022-11-07T13:17:18.614Z,20.94
2022-11-07T13:19:45.434Z,20.93
2022-11-07T13:22:22.081Z,20.93
2022-11-07T13:24:51.088Z,20.95
2022-11-07T13:27:21.479Z,20.95
2022-11-07T13:29:47.909Z,20.95
2022-11-07T13:32:16.360Z,21.03
2022-11-07T13:34:47.730Z,21.08
2022-11-07T13:37:17.756Z,20.98
2022-11-07T13:39:45.575Z,20.97
2022-11-07T13:42:15.956Z,20.97
2022-11-07T13:44:43.745Z,21.00
2022-11-07T13:47:13.558Z,21.02
2022-11-07T13:49:45.042Z,21.02
2022-11-07T13:52:16.732Z,21.02
2022-11-07T13:54:48.943Z,21.01
2022-11-07T13:57:18.746Z,21.00
2022-11-07T13:59:47.651Z,21.05
2022-11-07T14:02:20.155Z,21.04
2022-11-07T14:05:15.335Z,20.96
2022-11-07T14:07:40.926Z,21.07
2022-11-07T14:10:14.346Z,20.91
2022-11-07T14:12:40.850Z,20.73
2022-11-07T14:15:13.548Z,20.61
2022-11-07T14:17:40.901Z,20.79
2022-11-07T14:20:13.771Z,20.86
2022-11-07T14:22:47.549Z,20.91
2022-11-07T14:25:18.674Z,20.91
2022-11-07T14:27:45.509Z,20.90
2022-11-07T14:30:15.548Z,20.88
2022-11-07T14:32:46.788Z,20.85
2022-11-07T14:35:17.659Z,20.81
2022-11-07T14:37:44.100Z,20.84
2022-11-07T14:40:10.984Z,20.80
2022-11-07T14:42:37.393Z,20.79
2022-11-07T14:45:04.533Z,20.78
2022-11-07T14:47:32.126Z,20.78
2022-11-07T14:49:59.496Z,20.77
2022-11-07T14:52:29.325Z,20.73
2022-11-07T14:54:59.876Z,20.76
2022-11-07T14:57:26.478Z,20.73
2022-11-07T14:59:53.246Z,20.73
2022-11-07T15:02:23.498Z,20.71
2022-11-07T15:04:50.454Z,20.70
2022-11-07T15:07:21.940Z,20.67
2022-11-07T15:09:50.544Z,20.64
2022-11-07T15:12:18.174Z,20.65
2022-11-07T15:14:45.262Z,20.63
2022-11-07T15:17:20.977Z,20.61
2022-11-07T15:19:54.171Z,20.61
2022-11-07T15:22:24.461Z,20.60
2022-11-07T15:24:52.560Z,20.60
2022-11-07T15:27:19.957Z,20.61
2022-11-07T15:29:51.677Z,20.61
2022-11-07T15:32:19.999Z,20.63
2022-11-07T15:35:30.103Z,20.65
2022-11-07T15:37:36.388Z,20.61
2022-11-07T15:40:10.255Z,20.57
2022-11-07T15:42:37.165Z,20.56
2022-11-07T15:45:03.798Z,20.53
2022-11-07T15:47:30.363Z,20.52
2022-11-07T15:49:56.682Z,20.51
2022-11-07T15:52:23.014Z,20.48
2022-11-07T15:54:49.308Z,20.47
2022-11-07T15:57:17.657Z,20.45
2022-11-07T15:59:44.018Z,20.43
2022-11-07T16:02:14.340Z,20.40
2022-11-07T16:04:40.778Z,20.39
2022-11-07T16:07:08.855Z,20.37
2022-11-07T16:09:35.285Z,20.33
2022-11-07T16:12:01.719Z,20.32
2022-11-07T16:14:43.396Z,20.31
2022-11-07T16:17:12.325Z,20.29
2022-11-07T16:19:38.702Z,20.26
2022-11-07T16:22:05.033Z,20.24
2022-11-07T16:24:31.468Z,20.22
2022-11-07T16:26:57.855Z,20.20
2022-11-07T16:29:24.407Z,20.19
2022-11-07T16:31:52.155Z,20.18
2022-11-07T16:34:18.650Z,20.16
2022-11-07T16:36:45.971Z,20.14
2022-11-07T16:39:17.421Z,20.12
2022-11-07T16:41:43.892Z,20.12
2022-11-07T16:44:10.536Z,20.09
2022-11-07T16:46:37.423Z,20.07
2022-11-07T16:49:11.845Z,20.04
2022-11-07T16:51:38.188Z,20.02
2022-11-07T16:54:04.528Z,20.00
2022-11-07T16:56:31.538Z,19.98
2022-11-07T16:58:58.322Z,19.96
2022-11-07T17:01:25.745Z,19.96
2022-11-07T17:03:52.222Z,19.94
2022-11-07T17:06:22.260Z,19.93
2022-11-07T17:08:48.646Z,19.91
2022-11-07T17:11:16.178Z,19.88
2022-11-07T17:13:42.890Z,19.87
2022-11-07T17:16:11.787Z,19.84
2022-11-07T17:18:38.209Z,19.83
2022-11-07T17:21:04.560Z,19.81
2022-11-07T17:23:32.214Z,19.81
2022-11-07T17:25:58.760Z,19.79
2022-11-07T17:28:25.114Z,19.77
2022-11-07T17:30:51.678Z,19.76
2022-11-07T17:33:18.208Z,19.74
2022-11-07T17:35:44.572Z,19.75
2022-11-07T17:38:14.821Z,19.72
2022-11-07T17:40:42.791Z,19.70
2022-11-07T17:43:09.154Z,19.70
2022-11-07T17:45:36.450Z,19.68
2022-11-07T17:48:02.797Z,19.68
2022-11-07T17:50:29.359Z,19.66
2022-11-07T17:52:55.688Z,19.65
2022-11-07T17:55:21.980Z,19.64
2022-11-07T17:57:49.660Z,19.63
2022-11-07T18:00:17.048Z,19.62
2022-11-07T18:02:43.476Z,19.60
2022-11-07T18:05:12.916Z,19.59
2022-11-07T18:07:39.283Z,19.59
2022-11-07T18:10:06.021Z,19.57
2022-11-07T18:12:32.364Z,19.55
2022-11-07T18:14:59.971Z,19.54
2022-11-07T18:17:26.358Z,19.53
2022-11-07T18:19:52.707Z,19.52
2022-11-07T18:22:19.122Z,19.52
2022-11-07T18:24:45.492Z,19.50
2022-11-07T18:27:11.903Z,19.49
2022-11-07T18:29:38.721Z,19.48
2022-11-07T18:32:06.655Z,19.47
2022-11-07T18:34:34.893Z,19.45
2022-11-07T18:37:01.347Z,19.45
2022-11-07T18:39:27.706Z,19.44
2022-11-07T18:41:54.098Z,19.44
2022-11-07T18:44:20.506Z,19.43
2022-11-07T18:46:47.200Z,19.42
2022-11-07T18:49:15.252Z,19.42
2022-11-07T18:51:41.888Z,19.41
2022-11-07T18:54:09.651Z,19.41
2022-11-07T18:56:36.081Z,19.39
2022-11-07T18:59:02.416Z,19.38
2022-11-07T19:01:29.792Z,19.37
2022-11-07T19:03:57.206Z,19.38
2022-11-07T19:06:25.517Z,19.38
2022-11-07T19:08:52.089Z,19.36
2022-11-07T19:11:19.479Z,19.36
2022-11-07T19:13:46.385Z,19.35
2022-11-07T19:16:14.363Z,19.34
2022-11-07T19:18:43.076Z,19.35
2022-11-07T19:21:18.854Z,19.34
2022-11-07T19:23:47.968Z,19.31
2022-11-07T19:26:14.328Z,19.30
2022-11-07T19:28:40.800Z,19.30
2022-11-07T19:31:08.003Z,19.29
2022-11-07T19:33:34.502Z,19.30
2022-11-07T19:36:02.679Z,19.28
2022-11-07T19:38:29.426Z,19.29
2022-11-07T19:40:57.586Z,19.28
2022-11-07T19:43:23.904Z,19.28
2022-11-07T19:45:50.246Z,19.26
2022-11-07T19:48:16.597Z,19.27
2022-11-07T19:50:42.895Z,19.27
2022-11-07T19:53:09.198Z,19.27
2022-11-07T19:55:35.685Z,19.25
2022-11-07T19:58:03.432Z,19.25
2022-11-07T20:00:29.801Z,19.24
2022-11-07T20:02:56.486Z,19.25
2022-11-07T20:05:23.049Z,19.25
2022-11-07T20:07:54.172Z,19.24
2022-11-07T20:10:22.581Z,19.23
2022-11-07T20:12:49.361Z,19.24
2022-11-07T20:15:17.281Z,19.22
2022-11-07T20:17:43.865Z,19.21
2022-11-07T20:20:13.686Z,19.22
2022-11-07T20:22:46.237Z,19.22
2022-11-07T20:25:13.092Z,19.22
2022-11-07T20:27:39.420Z,19.22
2022-11-07T20:30:06.225Z,19.21
2022-11-07T20:32:33.827Z,19.21
2022-11-07T20:35:00.157Z,19.19
2022-11-07T20:37:26.634Z,19.19
2022-11-07T20:39:52.952Z,19.18
2022-11-07T20:42:19.264Z,19.17
2022-11-07T20:44:45.712Z,19.17
2022-11-07T20:47:12.310Z,19.16
2022-11-07T20:49:40.754Z,19.16
2022-11-07T20:52:07.130Z,19.15
2022-11-07T20:54:34.062Z,19.14
2022-11-07T20:57:00.310Z,19.15
2022-11-07T20:59:26.661Z,19.15
2022-11-07T21:01:53.104Z,19.14
2022-11-07T21:04:19.421Z,19.14
2022-11-07T21:06:47.623Z,19.13
2022-11-07T21:09:14.038Z,19.13
2022-11-07T21:11:40.330Z,19.13
2022-11-07T21:14:06.617Z,19.11
2022-11-07T21:16:33.030Z,19.14
2022-11-07T21:18:59.367Z,19.12
2022-11-07T21:21:26.563Z,19.12
2022-11-07T21:23:55.221Z,19.11
2022-11-07T21:26:22.977Z,19.10
2022-11-07T21:28:49.488Z,19.10
2022-11-07T21:31:16.537Z,19.10
2022-11-07T21:33:42.775Z,19.09
2022-11-07T21:36:10.138Z,19.10
2022-11-07T21:38:36.458Z,19.08
2022-11-07T21:41:05.648Z,19.10
2022-11-07T21:43:31.987Z,19.10
2022-11-07T21:46:05.235Z,19.09
2022-11-07T21:48:31.650Z,19.08
2022-11-07T21:50:57.975Z,19.08
2022-11-07T21:53:24.289Z,19.07
2022-11-07T21:55:50.543Z,19.08
2022-11-07T21:58:18.146Z,19.08
2022-11-07T22:00:44.485Z,19.07
2022-11-07T22:03:10.807Z,19.06
2022-11-07T22:05:38.109Z,19.08
2022-11-07T22:08:04.479Z,19.07
2022-11-07T22:10:30.794Z,19.06
2022-11-07T22:12:57.201Z,19.06
2022-11-07T22:15:24.825Z,19.05
2022-11-07T22:17:51.665Z,19.03
2022-11-07T22:20:18.092Z,19.04
2022-11-07T22:22:44.374Z,19.03
2022-11-07T22:25:10.690Z,19.03
2022-11-07T22:27:37.020Z,19.03
2022-11-07T22:30:03.423Z,19.02
2022-11-07T22:32:31.071Z,19.03
2022-11-07T22:34:57.367Z,19.02
2022-11-07T22:37:23.724Z,19.00
2022-11-07T22:39:50.038Z,19.00
2022-11-07T22:42:21.036Z,19.02
2022-11-07T22:44:50.003Z,19.02
2022-11-07T22:47:16.319Z,19.02
2022-11-07T22:49:43.943Z,19.01
2022-11-07T22:52:10.366Z,19.00
2022-11-07T22:54:36.672Z,18.99
2022-11-07T22:57:03.007Z,18.98
2022-11-07T22:59:29.340Z,18.98
2022-11-07T23:01:55.784Z,18.98
2022-11-07T23:04:22.199Z,18.99
2022-11-07T23:06:49.832Z,18.97
2022-11-07T23:09:16.097Z,18.97
2022-11-07T23:11:48.024Z,18.98
2022-11-07T23:14:15.608Z,18.96
2022-11-07T23:16:43.956Z,18.98
2022-11-07T23:19:11.995Z,18.98
2022-11-07T23:21:38.426Z,18.98
2022-11-07T23:24:06.445Z,18.95
2022-11-07T23:26:33.333Z,18.95
2022-11-07T23:28:59.810Z,18.97
2022-11-07T23:31:26.085Z,18.96
2022-11-07T23:33:52.399Z,18.95
2022-11-07T23:36:18.720Z,18.96
2022-11-07T23:38:45.027Z,18.96
2022-11-07T23:41:13.500Z,18.95
2022-11-07T23:43:40.126Z,18.93
2022-11-07T23:46:07.020Z,18.93
2022-11-07T23:48:33.444Z,18.93
2022-11-07T23:50:59.793Z,18.94
2022-11-07T23:53:26.108Z,18.94
2022-11-07T23:55:52.483Z,18.92
2022-11-07T23:58:20.346Z,18.94
